createdAt,value
2023-03-25T00:00:57.757Z,11.89
2023-03-25T00:03:26.345Z,11.94
2023-03-25T00:05:54.121Z,12.10
2023-03-25T00:08:21.972Z,12.04
2023-03-25T00:10:54.034Z,12.09
2023-03-25T00:13:22.099Z,11.94
2023-03-25T00:15:50.112Z,12.00
2023-03-25T00:18:19.368Z,11.94
2023-03-25T00:20:49.539Z,11.77
2023-03-25T00:23:17.517Z,11.93
2023-03-25T00:25:45.277Z,12.04
2023-03-25T00:28:13.767Z,11.96
2023-03-25T00:30:41.866Z,11.92
2023-03-25T00:33:10.863Z,11.89
2023-03-25T00:35:44.928Z,11.97
2023-03-25T00:38:12.800Z,12.11
2023-03-25T00:40:41.163Z,12.20
2023-03-25T00:43:08.861Z,12.40
2023-03-25T00:45:36.583Z,12.12
2023-03-25T00:48:06.801Z,11.78
2023-03-25T00:50:34.738Z,11.88
2023-03-25T00:53:04.028Z,12.06
2023-03-25T00:55:31.821Z,12.05
2023-03-25T00:57:59.478Z,12.02
2023-03-25T01:00:27.196Z,12.13
2023-03-25T01:02:55.044Z,12.05
2023-03-25T01:05:22.736Z,11.91
2023-03-25T01:07:51.779Z,11.99
2023-03-25T01:10:21.313Z,12.05
2023-03-25T01:12:49.080Z,12.02
2023-03-25T01:15:16.958Z,12.19
2023-03-25T01:17:44.651Z,11.80
2023-03-25T01:20:13.018Z,12.05
2023-03-25T01:22:40.735Z,11.67
2023-03-25T01:25:09.220Z,11.95
2023-03-25T01:27:38.271Z,12.05
2023-03-25T01:30:07.173Z,11.87
2023-03-25T01:32:34.890Z,12.03
2023-03-25T01:35:04.508Z,12.22
2023-03-25T01:37:34.087Z,11.95
2023-03-25T01:40:01.814Z,12.02
2023-03-25T01:42:29.484Z,11.94
2023-03-25T01:45:21.037Z,11.80
2023-03-25T01:47:50.182Z,11.94
2023-03-25T01:50:18.247Z,11.98
2023-03-25T01:52:49.224Z,11.78
2023-03-25T01:55:20.307Z,11.69
2023-03-25T01:57:48.898Z,11.79
2023-03-25T02:00:19.239Z,11.68
2023-03-25T02:02:47.674Z,11.78
2023-03-25T02:05:20.090Z,12.09
2023-03-25T02:07:50.317Z,12.05
2023-03-25T02:10:18.919Z,11.77
2023-03-25T02:12:47.197Z,11.83
2023-03-25T02:15:16.488Z,11.77
2023-03-25T02:17:55.095Z,11.86
2023-03-25T02:21:02.910Z,11.89
2023-03-25T02:23:58.313Z,11.50
2023-03-25T02:26:56.278Z,11.53
2023-03-25T02:29:33.979Z,11.79
2023-03-25T02:32:12.769Z,11.74
2023-03-25T02:35:14.904Z,11.80
2023-03-25T02:38:21.818Z,11.83
2023-03-25T02:40:55.654Z,11.83
2023-03-25T02:43:27.385Z,11.97
2023-03-25T02:45:57.423Z,11.93
2023-03-25T02:48:31.490Z,11.63
2023-03-25T02:50:59.694Z,11.81
2023-03-25T02:53:33.398Z,11.91
2023-03-25T02:56:03.604Z,11.77
2023-03-25T02:58:32.031Z,11.69
2023-03-25T03:00:59.873Z,11.67
2023-03-25T03:03:28.454Z,11.85
2023-03-25T03:05:58.968Z,11.89
2023-03-25T03:08:41.640Z,11.86
2023-03-25T03:11:14.236Z,12.02
2023-03-25T03:13:53.904Z,12.03
2023-03-25T03:16:25.715Z,12.12
2023-03-25T03:19:02.268Z,12.02
2023-03-25T03:21:38.225Z,11.87
2023-03-25T03:24:12.676Z,12.24
2023-03-25T03:26:44.038Z,12.11
2023-03-25T03:29:14.606Z,11.56
2023-03-25T03:31:48.362Z,11.52
2023-03-25T03:34:36.472Z,11.46
2023-03-25T03:37:05.859Z,11.67
2023-03-25T03:39:36.631Z,11.66
2023-03-25T03:42:07.842Z,11.74
2023-03-25T03:44:37.755Z,11.62
2023-03-25T03:47:07.552Z,11.43
2023-03-25T03:49:39.349Z,11.42
2023-03-25T03:52:09.868Z,11.50
2023-03-25T03:54:43.315Z,11.73
2023-03-25T03:57:14.391Z,11.52
2023-03-25T03:59:46.298Z,11.80
2023-03-25T04:02:18.737Z,11.96
2023-03-25T04:04:46.524Z,11.69
2023-03-25T04:07:17.014Z,11.58
2023-03-25T04:09:55.869Z,11.55
2023-03-25T04:12:26.867Z,11.33
2023-03-25T04:14:55.824Z,11.48
2023-03-25T04:17:24.157Z,11.62
2023-03-25T04:19:53.710Z,11.71
2023-03-25T04:22:22.770Z,11.73
2023-03-25T04:24:51.954Z,11.33
2023-03-25T04:27:23.021Z,11.46
2023-03-25T04:29:51.805Z,11.62
2023-03-25T04:32:20.072Z,11.34
2023-03-25T04:34:48.018Z,11.36
2023-03-25T04:37:15.920Z,11.30
2023-03-25T04:39:43.586Z,10.99
2023-03-25T04:42:13.892Z,10.98
2023-03-25T04:44:41.590Z,11.06
2023-03-25T04:47:11.969Z,10.91
2023-03-25T04:49:39.627Z,10.97
2023-03-25T04:52:09.341Z,11.02
2023-03-25T04:54:38.440Z,10.82
2023-03-25T04:57:08.673Z,11.03
2023-03-25T04:59:38.238Z,11.05
2023-03-25T05:02:06.827Z,10.86
2023-03-25T05:04:34.802Z,10.91
2023-03-25T05:07:02.591Z,10.93
2023-03-25T05:09:30.251Z,10.86
2023-03-25T05:11:57.944Z,10.50
2023-03-25T05:14:25.680Z,10.63
2023-03-25T05:16:57.379Z,10.54
2023-03-25T05:19:25.581Z,10.55
2023-03-25T05:21:53.283Z,10.43
2023-03-25T05:24:21.003Z,10.23
2023-03-25T05:26:48.692Z,10.31
2023-03-25T05:29:16.527Z,10.57
2023-03-25T05:31:46.457Z,10.84
2023-03-25T05:34:17.132Z,10.97
2023-03-25T05:36:45.189Z,11.06
2023-03-25T05:39:13.774Z,11.05
2023-03-25T05:41:41.693Z,10.97
2023-03-25T05:44:15.500Z,10.96
2023-03-25T05:46:43.395Z,10.97
2023-03-25T05:49:11.055Z,11.01
2023-03-25T05:51:40.123Z,11.07
2023-03-25T05:54:11.699Z,10.92
2023-03-25T05:56:40.290Z,10.77
2023-03-25T05:59:10.333Z,10.73
2023-03-25T06:01:38.548Z,10.79
2023-03-25T06:04:09.804Z,10.20
2023-03-25T06:06:37.629Z,10.16
2023-03-25T06:09:07.358Z,10.28
2023-03-25T06:11:38.538Z,9.83
2023-03-25T06:14:07.514Z,9.69
2023-03-25T06:16:35.604Z,9.52
2023-03-25T06:19:03.593Z,9.01
2023-03-25T06:21:33.797Z,9.15
2023-03-25T06:24:02.285Z,8.73
2023-03-25T06:26:32.577Z,9.04
2023-03-25T06:29:01.100Z,9.30
2023-03-25T06:31:28.806Z,9.47
2023-03-25T06:33:57.058Z,9.73
2023-03-25T06:36:25.838Z,9.89
2023-03-25T06:38:54.708Z,10.07
2023-03-25T06:41:25.831Z,10.20
2023-03-25T06:43:55.096Z,10.28
2023-03-25T06:46:22.915Z,9.92
2023-03-25T06:48:50.661Z,9.49
2023-03-25T06:51:18.349Z,9.57
2023-03-25T06:53:46.074Z,9.69
2023-03-25T06:56:13.833Z,9.73
2023-03-25T06:58:41.962Z,9.72
2023-03-25T07:01:11.027Z,9.87
2023-03-25T07:03:39.087Z,10.03
2023-03-25T07:06:07.696Z,10.21
2023-03-25T07:08:35.496Z,10.36
2023-03-25T07:11:03.865Z,10.27
2023-03-25T07:13:32.178Z,10.64
2023-03-25T07:16:00.427Z,10.51
2023-03-25T07:18:29.571Z,10.23
2023-03-25T07:20:57.308Z,10.28
2023-03-25T07:23:25.114Z,10.02
2023-03-25T07:25:53.015Z,10.58
2023-03-25T07:28:21.408Z,10.90
2023-03-25T07:30:49.076Z,10.90
2023-03-25T07:33:16.775Z,11.13
2023-03-25T07:35:46.033Z,11.41
2023-03-25T07:38:13.777Z,11.53
2023-03-25T07:40:41.525Z,12.09
2023-03-25T07:43:09.301Z,12.27
2023-03-25T07:45:44.035Z,12.65
2023-03-25T07:48:14.826Z,12.43
2023-03-25T07:50:43.387Z,11.98
2023-03-25T07:53:12.723Z,12.31
2023-03-25T07:55:40.481Z,12.38
2023-03-25T07:58:08.249Z,12.63
2023-03-25T08:00:35.947Z,12.16
2023-03-25T08:03:03.785Z,12.06
2023-03-25T08:05:31.909Z,11.65
2023-03-25T08:08:00.972Z,11.58
2023-03-25T08:10:30.102Z,11.11
2023-03-25T08:12:57.892Z,10.83
2023-03-25T08:15:25.709Z,10.97
2023-03-25T08:17:53.601Z,11.09
2023-03-25T08:20:21.488Z,11.03
2023-03-25T08:22:49.266Z,11.18
2023-03-25T08:25:17.059Z,10.94
2023-03-25T08:27:46.369Z,10.66
2023-03-25T08:30:15.762Z,11.09
2023-03-25T08:32:46.379Z,11.27
2023-03-25T08:35:14.475Z,11.15
2023-03-25T08:37:42.157Z,11.44
2023-03-25T08:40:10.234Z,11.36
2023-03-25T08:42:38.499Z,11.78
2023-03-25T08:45:08.997Z,11.82
2023-03-25T08:47:36.722Z,11.90
2023-03-25T08:50:05.388Z,11.95
2023-03-25T08:52:33.094Z,11.98
2023-03-25T08:55:00.914Z,12.14
2023-03-25T08:57:28.696Z,12.30
2023-03-25T08:59:56.335Z,12.75
2023-03-25T09:02:25.515Z,12.69
2023-03-25T09:04:53.261Z,12.41
2023-03-25T09:07:23.253Z,12.24
2023-03-25T09:09:50.989Z,12.50
2023-03-25T09:12:18.643Z,12.59
2023-03-25T09:14:46.612Z,12.90
2023-03-25T09:17:14.388Z,13.22
2023-03-25T09:19:43.490Z,13.28
2023-03-25T09:22:11.126Z,12.81
2023-03-25T09:24:38.822Z,12.47
2023-03-25T09:27:06.486Z,12.37
2023-03-25T09:29:34.346Z,12.38
2023-03-25T09:32:02.717Z,12.11
2023-03-25T09:34:31.019Z,12.06
2023-03-25T09:37:00.151Z,11.91
2023-03-25T09:39:27.837Z,11.72
2023-03-25T09:42:04.917Z,11.97
2023-03-25T09:44:35.403Z,12.00
2023-03-25T09:47:04.488Z,12.06
2023-03-25T09:49:38.508Z,12.50
2023-03-25T09:52:13.397Z,12.28
2023-03-25T09:54:42.182Z,12.00
2023-03-25T09:57:15.656Z,12.43
2023-03-25T09:59:47.344Z,11.85
2023-03-25T10:02:26.681Z,11.64
2023-03-25T10:05:18.526Z,11.82
2023-03-25T10:07:58.464Z,11.69
2023-03-25T10:10:29.680Z,11.37
2023-03-25T10:13:05.253Z,11.65
2023-03-25T10:15:38.363Z,11.46
2023-03-25T10:18:27.824Z,11.83
2023-03-25T10:21:02.441Z,11.88
2023-03-25T10:23:37.718Z,11.85
2023-03-25T10:26:09.297Z,11.38
2023-03-25T10:28:43.480Z,11.52
2023-03-25T10:31:14.902Z,11.30
2023-03-25T10:33:45.660Z,11.47
2023-03-25T10:36:18.053Z,12.25
2023-03-25T10:38:48.472Z,12.53
2023-03-25T10:41:25.340Z,12.44
2023-03-25T10:43:53.319Z,12.31
2023-03-25T10:46:27.533Z,12.20
2023-03-25T10:48:55.234Z,12.12
2023-03-25T10:51:25.610Z,12.11
2023-03-25T10:53:54.732Z,11.60
2023-03-25T10:56:25.758Z,11.27
2023-03-25T10:58:55.746Z,11.07
2023-03-25T11:01:37.135Z,11.53
2023-03-25T11:04:06.460Z,11.74
2023-03-25T11:06:36.026Z,12.15
2023-03-25T11:09:18.204Z,12.21
2023-03-25T11:11:46.974Z,12.99
2023-03-25T11:14:14.909Z,13.23
2023-03-25T11:16:44.829Z,12.51
2023-03-25T11:19:19.611Z,12.24
2023-03-25T11:21:49.063Z,12.05
2023-03-25T11:24:20.406Z,12.11
2023-03-25T11:26:51.789Z,12.77
2023-03-25T11:29:22.170Z,12.50
2023-03-25T11:31:58.404Z,12.93
2023-03-25T11:34:26.370Z,13.11
2023-03-25T11:36:56.039Z,13.43
2023-03-25T11:39:31.416Z,13.43
2023-03-25T11:41:59.709Z,13.68
2023-03-25T11:44:29.516Z,13.71
2023-03-25T11:46:59.146Z,13.98
2023-03-25T11:49:27.482Z,13.44
2023-03-25T11:51:59.292Z,12.93
2023-03-25T11:54:29.097Z,13.09
2023-03-25T11:56:57.509Z,12.45
2023-03-25T11:59:27.307Z,12.11
2023-03-25T12:02:03.099Z,12.11
2023-03-25T12:04:31.242Z,11.72
2023-03-25T12:07:01.598Z,11.65
2023-03-25T12:09:32.885Z,11.56
2023-03-25T12:12:23.096Z,11.96
2023-03-25T12:15:00.360Z,12.30
2023-03-25T12:17:34.798Z,12.06
2023-03-25T12:20:10.040Z,12.17
2023-03-25T12:22:49.354Z,12.17
2023-03-25T12:25:27.364Z,11.91
2023-03-25T12:28:04.173Z,12.29
2023-03-25T12:30:49.029Z,12.23
2023-03-25T12:33:30.363Z,12.58
2023-03-25T12:36:14.532Z,13.02
2023-03-25T12:38:50.192Z,13.36
2023-03-25T12:41:23.131Z,13.26
2023-03-25T12:43:59.787Z,13.37
2023-03-25T12:46:54.954Z,13.51
2023-03-25T12:49:35.263Z,13.52
2023-03-25T12:52:07.362Z,13.18
2023-03-25T12:54:52.178Z,13.52
2023-03-25T12:57:33.089Z,13.53
2023-03-25T13:00:26.414Z,13.42
2023-03-25T13:03:08.251Z,13.15
2023-03-25T13:05:40.267Z,13.83
2023-03-25T13:08:11.567Z,13.88
2023-03-25T13:10:40.747Z,13.77
2023-03-25T13:13:14.487Z,13.84
2023-03-25T13:15:44.385Z,13.70
2023-03-25T13:18:15.133Z,12.95
2023-03-25T13:20:46.646Z,12.93
2023-03-25T13:23:21.486Z,12.79
2023-03-25T13:25:53.153Z,12.82
2023-03-25T13:28:25.610Z,12.66
2023-03-25T13:30:54.718Z,11.71
2023-03-25T13:33:26.139Z,11.96
2023-03-25T13:35:56.096Z,12.59
2023-03-25T13:38:28.495Z,12.73
2023-03-25T13:41:06.324Z,12.36
2023-03-25T13:43:38.751Z,13.61
2023-03-25T13:46:09.382Z,13.57
2023-03-25T13:48:41.876Z,13.28
2023-03-25T13:51:10.403Z,13.56
2023-03-25T13:53:41.413Z,13.17
2023-03-25T13:56:38.080Z,12.90
2023-03-25T13:59:24.162Z,13.48
2023-03-25T14:02:05.804Z,13.29
2023-03-25T14:05:01.941Z,13.30
2023-03-25T14:07:45.329Z,13.64
2023-03-25T14:10:27.580Z,14.33
2023-03-25T14:12:58.192Z,14.19
2023-03-25T14:15:30.409Z,14.14
2023-03-25T14:17:58.508Z,14.16
2023-03-25T14:20:28.663Z,14.22
2023-03-25T14:22:57.686Z,14.01
2023-03-25T14:25:30.923Z,14.15
2023-03-25T14:27:58.592Z,14.05
2023-03-25T14:30:29.370Z,13.66
2023-03-25T14:32:57.771Z,14.11
2023-03-25T14:35:49.460Z,14.12
2023-03-25T14:38:49.800Z,14.02
2023-03-25T14:41:17.552Z,14.08
2023-03-25T14:43:47.235Z,14.10
2023-03-25T14:46:19.413Z,13.90
2023-03-25T14:48:51.645Z,13.93
2023-03-25T14:51:44.957Z,13.75
2023-03-25T14:54:21.956Z,13.28
2023-03-25T14:56:57.787Z,13.50
2023-03-25T14:59:31.000Z,13.27
2023-03-25T15:02:06.069Z,13.14
2023-03-25T15:04:36.084Z,13.67
2023-03-25T15:07:04.837Z,13.40
2023-03-25T15:09:32.787Z,12.75
2023-03-25T15:12:02.667Z,12.72
2023-03-25T15:14:32.808Z,12.82
2023-03-25T15:17:05.472Z,13.08
2023-03-25T15:20:08.836Z,12.67
2023-03-25T15:22:36.829Z,12.61
2023-03-25T15:25:07.035Z,12.68
2023-03-25T15:27:48.123Z,12.54
2023-03-25T15:30:31.814Z,12.41
2023-03-25T15:33:13.605Z,11.95
2023-03-25T15:35:55.548Z,11.61
2023-03-25T15:38:58.680Z,10.96
2023-03-25T15:42:00.532Z,9.97
2023-03-25T15:45:08.713Z,9.60
2023-03-25T15:47:49.759Z,9.43
2023-03-25T15:50:32.677Z,9.42
2023-03-25T15:53:35.836Z,9.53
2023-03-25T15:56:12.162Z,9.96
2023-03-25T15:58:42.692Z,10.14
2023-03-25T16:01:17.845Z,10.00
2023-03-25T16:03:46.585Z,10.02
2023-03-25T16:06:17.241Z,10.25
2023-03-25T16:08:47.781Z,10.20
2023-03-25T16:11:17.660Z,10.15
2023-03-25T16:13:45.373Z,10.27
2023-03-25T16:16:14.659Z,10.47
2023-03-25T16:18:43.491Z,10.41
2023-03-25T16:21:11.485Z,10.68
2023-03-25T16:23:40.571Z,10.37
2023-03-25T16:26:08.397Z,10.44
2023-03-25T16:28:40.887Z,10.45
2023-03-25T16:31:28.136Z,10.58
2023-03-25T16:34:00.439Z,10.65
2023-03-25T16:36:28.415Z,10.73
2023-03-25T16:38:58.666Z,11.01
2023-03-25T16:41:27.166Z,10.63
2023-03-25T16:43:54.952Z,10.59
2023-03-25T16:46:23.598Z,10.54
2023-03-25T16:48:53.556Z,10.53
2023-03-25T16:51:23.792Z,10.52
2023-03-25T16:53:55.763Z,10.15
2023-03-25T16:56:29.218Z,10.23
2023-03-25T16:59:00.224Z,10.30
2023-03-25T17:01:29.248Z,10.38
2023-03-25T17:04:09.435Z,10.15
2023-03-25T17:06:39.875Z,10.39
2023-03-25T17:09:10.374Z,10.64
2023-03-25T17:11:39.496Z,10.33
2023-03-25T17:14:08.806Z,10.26
2023-03-25T17:16:37.978Z,9.95
2023-03-25T17:19:05.887Z,10.47
2023-03-25T17:21:35.204Z,10.03
2023-03-25T17:24:05.619Z,10.00
2023-03-25T17:26:35.264Z,10.03
2023-03-25T17:29:07.835Z,10.14
2023-03-25T17:31:37.882Z,10.44
2023-03-25T17:34:07.454Z,10.04
2023-03-25T17:36:36.593Z,10.11
2023-03-25T17:39:06.794Z,10.39
2023-03-25T17:41:37.740Z,10.04
2023-03-25T17:44:08.064Z,10.02
2023-03-25T17:46:36.139Z,9.91
2023-03-25T17:49:13.016Z,10.05
2023-03-25T17:51:42.125Z,10.18
2023-03-25T17:54:09.815Z,10.14
2023-03-25T17:56:39.550Z,9.99
2023-03-25T17:59:14.804Z,10.25
2023-03-25T18:01:42.581Z,10.26
2023-03-25T18:04:12.913Z,10.13
2023-03-25T18:06:42.904Z,10.31
2023-03-25T18:09:15.987Z,10.10
2023-03-25T18:11:44.731Z,9.90
2023-03-25T18:14:13.922Z,10.02
2023-03-25T18:16:41.678Z,9.91
2023-03-25T18:19:12.174Z,9.98
2023-03-25T18:21:40.017Z,10.11
2023-03-25T18:24:08.063Z,10.22
2023-03-25T18:26:36.140Z,9.87
2023-03-25T18:29:05.269Z,10.01
2023-03-25T18:31:34.320Z,9.76
2023-03-25T18:34:02.040Z,9.90
2023-03-25T18:36:29.777Z,10.08
2023-03-25T18:38:57.815Z,10.04
2023-03-25T18:41:25.477Z,9.70
2023-03-25T18:43:53.229Z,9.98
2023-03-25T18:46:21.513Z,10.14
2023-03-25T18:48:50.736Z,10.13
2023-03-25T18:51:18.435Z,10.23
2023-03-25T18:53:47.285Z,10.17
2023-03-25T18:56:15.026Z,9.91
2023-03-25T18:58:42.673Z,10.06
2023-03-25T19:01:15.633Z,9.98
2023-03-25T19:03:43.428Z,10.06
2023-03-25T19:06:14.097Z,9.89
2023-03-25T19:08:43.396Z,9.99
2023-03-25T19:11:20.958Z,9.96
2023-03-25T19:13:50.322Z,9.98
2023-03-25T19:16:18.345Z,9.94
2023-03-25T19:18:47.445Z,9.79
2023-03-25T19:21:18.029Z,9.87
2023-03-25T19:23:45.902Z,9.87
2023-03-25T19:26:13.917Z,9.85
2023-03-25T19:28:41.767Z,9.88
2023-03-25T19:31:09.703Z,9.80
2023-03-25T19:33:37.443Z,10.00
2023-03-25T19:36:05.839Z,9.85
2023-03-25T19:38:35.201Z,10.14
2023-03-25T19:41:05.333Z,10.20
2023-03-25T19:43:33.103Z,10.07
2023-03-25T19:46:01.344Z,10.18
2023-03-25T19:48:30.181Z,10.41
2023-03-25T19:50:58.547Z,10.48
2023-03-25T19:53:27.426Z,10.31
2023-03-25T19:55:57.041Z,10.31
2023-03-25T19:58:25.101Z,10.44
2023-03-25T20:00:53.186Z,10.46
2023-03-25T20:03:22.714Z,10.57
2023-03-25T20:05:50.860Z,10.47
2023-03-25T20:08:18.731Z,10.28
2023-03-25T20:10:46.486Z,10.49
2023-03-25T20:13:15.609Z,10.56
2023-03-25T20:15:43.359Z,10.35
2023-03-25T20:18:11.220Z,10.22
2023-03-25T20:20:40.611Z,10.13
2023-03-25T20:23:08.362Z,10.10
2023-03-25T20:25:36.494Z,10.01
2023-03-25T20:28:04.231Z,9.97
2023-03-25T20:30:35.274Z,10.08
2023-03-25T20:33:03.192Z,10.03
2023-03-25T20:35:31.994Z,9.89
2023-03-25T20:37:59.859Z,9.87
2023-03-25T20:40:37.285Z,10.06
2023-03-25T20:43:13.701Z,9.96
2023-03-25T20:45:43.428Z,10.08
2023-03-25T20:48:11.382Z,10.20
2023-03-25T20:50:39.095Z,10.05
2023-03-25T20:53:06.785Z,9.65
2023-03-25T20:55:34.416Z,9.81
2023-03-25T20:58:02.204Z,9.68
2023-03-25T21:00:30.099Z,9.87
2023-03-25T21:02:59.252Z,9.58
2023-03-25T21:05:27.960Z,9.91
2023-03-25T21:07:55.687Z,9.82
2023-03-25T21:10:23.542Z,9.84
2023-03-25T21:12:51.417Z,9.70
2023-03-25T21:15:19.224Z,9.78
2023-03-25T21:17:47.108Z,9.72
2023-03-25T21:20:16.283Z,9.86
2023-03-25T21:22:44.717Z,9.76
2023-03-25T21:25:14.216Z,9.82
2023-03-25T21:27:42.300Z,10.03
2023-03-25T21:30:11.155Z,9.67
2023-03-25T21:32:39.060Z,9.91
2023-03-25T21:35:07.879Z,9.79
2023-03-25T21:37:39.287Z,9.87
2023-03-25T21:40:10.419Z,9.97
2023-03-25T21:42:39.184Z,9.87
2023-03-25T21:45:08.696Z,10.01
2023-03-25T21:47:36.713Z,9.95
2023-03-25T21:50:07.315Z,10.00
2023-03-25T21:52:35.006Z,9.98
2023-03-25T21:55:04.084Z,9.78
2023-03-25T21:57:37.717Z,9.82
2023-03-25T22:00:08.607Z,10.03
2023-03-25T22:02:36.607Z,10.32
2023-03-25T22:05:04.407Z,10.17
2023-03-25T22:07:32.113Z,10.02
2023-03-25T22:09:59.820Z,10.16
2023-03-25T22:12:29.941Z,10.05
2023-03-25T22:14:57.768Z,9.99
2023-03-25T22:17:25.555Z,9.94
2023-03-25T22:19:53.459Z,9.85
2023-03-25T22:22:21.600Z,9.85
2023-03-25T22:24:50.273Z,9.76
2023-03-25T22:27:17.948Z,10.13
2023-03-25T22:29:46.970Z,9.84
2023-03-25T22:32:14.720Z,10.02
2023-03-25T22:34:42.438Z,10.06
2023-03-25T22:37:10.256Z,10.11
2023-03-25T22:39:38.919Z,10.10
2023-03-25T22:42:06.721Z,10.11
2023-03-25T22:44:34.401Z,9.88
2023-03-25T22:47:03.843Z,10.02
2023-03-25T22:49:31.661Z,10.07
2023-03-25T22:51:59.409Z,10.25
2023-03-25T22:54:27.255Z,10.39
2023-03-25T22:56:55.023Z,10.31
2023-03-25T22:59:22.899Z,10.31
2023-03-25T23:01:50.629Z,10.14
2023-03-25T23:04:19.761Z,10.11
2023-03-25T23:07:00.613Z,10.13
2023-03-25T23:09:45.480Z,9.98
2023-03-25T23:12:14.655Z,9.95
2023-03-25T23:14:44.476Z,9.84
2023-03-25T23:17:12.611Z,9.73
2023-03-25T23:19:41.715Z,9.95
2023-03-25T23:22:09.483Z,10.04
2023-03-25T23:24:38.985Z,10.04
2023-03-25T23:27:08.261Z,9.93
2023-03-25T23:29:37.269Z,9.95
2023-03-25T23:32:05.936Z,10.09
2023-03-25T23:34:34.396Z,9.84
2023-03-25T23:37:03.781Z,10.06
2023-03-25T23:39:31.780Z,9.82
2023-03-25T23:41:59.579Z,9.82
2023-03-25T23:44:27.344Z,10.02
2023-03-25T23:46:55.093Z,10.04
2023-03-25T23:49:22.884Z,10.05
2023-03-25T23:51:51.111Z,10.00
2023-03-25T23:54:20.234Z,9.86
2023-03-25T23:56:47.928Z,9.99
2023-03-25T23:59:15.689Z,9.94
